sensor_id;sensor_type;location;lat;lon;timestamp;temperature;humidity
21495;DHT22;10909;53.590;10.054;2022-08-01T00:00:24;22.10;76.00
21495;DHT22;10909;53.590;10.054;2022-08-01T00:02:50;22.10;76.10
21495;DHT22;10909;53.590;10.054;2022-08-01T00:05:15;22.10;76.10
21495;DHT22;10909;53.590;10.054;2022-08-01T00:07:41;22.10;76.20
21495;DHT22;10909;53.590;10.054;2022-08-01T00:10:10;22.10;76.20
21495;DHT22;10909;53.590;10.054;2022-08-01T00:12:36;22.10;76.20
21495;DHT22;10909;53.590;10.054;2022-08-01T00:15:04;22.10;76.20
21495;DHT22;10909;53.590;10.054;2022-08-01T00:17:31;22.10;76.20
21495;DHT22;10909;53.590;10.054;2022-08-01T00:19:56;22.10;76.20
21495;DHT22;10909;53.590;10.054;2022-08-01T00:22:22;22.10;76.40
21495;DHT22;10909;53.590;10.054;2022-08-01T00:24:48;22.10;76.30
21495;DHT22;10909;53.590;10.054;2022-08-01T00:27:13;22.10;76.10
21495;DHT22;10909;53.590;10.054;2022-08-01T00:29:39;22.00;76.10
21495;DHT22;10909;53.590;10.054;2022-08-01T00:32:05;22.00;76.10
21495;DHT22;10909;53.590;10.054;2022-08-01T00:34:31;22.00;76.30
21495;DHT22;10909;53.590;10.054;2022-08-01T00:36:56;22.00;76.40
21495;DHT22;10909;53.590;10.054;2022-08-01T00:39:22;22.00;76.40
21495;DHT22;10909;53.590;10.054;2022-08-01T00:41:48;22.00;76.40
21495;DHT22;10909;53.590;10.054;2022-08-01T00:44:13;22.00;76.50
21495;DHT22;10909;53.590;10.054;2022-08-01T00:46:39;22.00;76.60
21495;DHT22;10909;53.590;10.054;2022-08-01T00:49:04;21.90;76.70
21495;DHT22;10909;53.590;10.054;2022-08-01T00:51:30;21.90;76.80
21495;DHT22;10909;53.590;10.054;2022-08-01T00:53:56;21.90;76.80
21495;DHT22;10909;53.590;10.054;2022-08-01T00:56:25;21.90;76.90
21495;DHT22;10909;53.590;10.054;2022-08-01T00:58:51;21.90;77.10
21495;DHT22;10909;53.590;10.054;2022-08-01T01:01:18;21.90;77.20
21495;DHT22;10909;53.590;10.054;2022-08-01T01:03:46;21.90;77.10
21495;DHT22;10909;53.590;10.054;2022-08-01T01:06:34;21.90;77.20
21495;DHT22;10909;53.590;10.054;2022-08-01T01:17:20;21.90;77.40
21495;DHT22;10909;53.590;10.054;2022-08-01T01:19:51;21.90;77.20
21495;DHT22;10909;53.590;10.054;2022-08-01T01:30:32;21.90;77.70
21495;DHT22;10909;53.590;10.054;2022-08-01T01:33:03;21.80;77.20
21495;DHT22;10909;53.590;10.054;2022-08-01T01:35:34;21.80;77.50
21495;DHT22;10909;53.590;10.054;2022-08-01T01:38:09;21.80;77.30
21495;DHT22;10909;53.590;10.054;2022-08-01T01:40:36;21.90;77.60
21495;DHT22;10909;53.590;10.054;2022-08-01T01:43:02;21.90;77.40
21495;DHT22;10909;53.590;10.054;2022-08-01T01:45:28;21.80;77.40
21495;DHT22;10909;53.590;10.054;2022-08-01T01:47:55;21.90;77.40
21495;DHT22;10909;53.590;10.054;2022-08-01T01:50:23;21.80;77.40
21495;DHT22;10909;53.590;10.054;2022-08-01T01:52:50;21.80;77.50
21495;DHT22;10909;53.590;10.054;2022-08-01T01:55:17;21.80;77.50
21495;DHT22;10909;53.590;10.054;2022-08-01T01:57:44;21.80;78.40
21495;DHT22;10909;53.590;10.054;2022-08-01T02:00:12;21.80;77.50
21495;DHT22;10909;53.590;10.054;2022-08-01T02:02:39;21.80;77.70
21495;DHT22;10909;53.590;10.054;2022-08-01T02:05:10;21.80;77.70
21495;DHT22;10909;53.590;10.054;2022-08-01T02:07:36;21.70;77.80
21495;DHT22;10909;53.590;10.054;2022-08-01T02:10:04;21.70;78.00
21495;DHT22;10909;53.590;10.054;2022-08-01T02:12:35;21.70;77.90
21495;DHT22;10909;53.590;10.054;2022-08-01T02:15:02;21.70;78.00
21495;DHT22;10909;53.590;10.054;2022-08-01T02:17:30;21.70;78.00
21495;DHT22;10909;53.590;10.054;2022-08-01T02:19:57;21.70;78.20
21495;DHT22;10909;53.590;10.054;2022-08-01T02:22:44;21.60;78.10
21495;DHT22;10909;53.590;10.054;2022-08-01T02:30:18;21.70;78.90
21495;DHT22;10909;53.590;10.054;2022-08-01T02:32:47;21.60;78.50
21495;DHT22;10909;53.590;10.054;2022-08-01T02:35:21;21.60;78.30
21495;DHT22;10909;53.590;10.054;2022-08-01T02:37:48;21.60;78.30
21495;DHT22;10909;53.590;10.054;2022-08-01T02:40:16;21.60;78.30
21495;DHT22;10909;53.590;10.054;2022-08-01T02:42:45;21.60;78.30
21495;DHT22;10909;53.590;10.054;2022-08-01T02:45:13;21.60;78.30
21495;DHT22;10909;53.590;10.054;2022-08-01T02:47:40;21.60;78.30
21495;DHT22;10909;53.590;10.054;2022-08-01T02:50:09;21.60;78.50
21495;DHT22;10909;53.590;10.054;2022-08-01T02:52:37;21.60;78.50
21495;DHT22;10909;53.590;10.054;2022-08-01T02:55:04;21.60;78.50
21495;DHT22;10909;53.590;10.054;2022-08-01T02:57:30;21.60;78.60
21495;DHT22;10909;53.590;10.054;2022-08-01T02:59:57;21.60;78.60
21495;DHT22;10909;53.590;10.054;2022-08-01T03:02:24;21.60;78.60
21495;DHT22;10909;53.590;10.054;2022-08-01T03:04:52;21.60;78.70
21495;DHT22;10909;53.590;10.054;2022-08-01T03:07:19;21.60;78.70
21495;DHT22;10909;53.590;10.054;2022-08-01T03:09:45;21.60;78.60
21495;DHT22;10909;53.590;10.054;2022-08-01T03:12:18;21.60;78.60
21495;DHT22;10909;53.590;10.054;2022-08-01T03:14:46;21.60;78.90
21495;DHT22;10909;53.590;10.054;2022-08-01T03:17:14;21.60;78.80
21495;DHT22;10909;53.590;10.054;2022-08-01T03:19:44;21.60;78.70
21495;DHT22;10909;53.590;10.054;2022-08-01T03:22:12;21.60;78.70
21495;DHT22;10909;53.590;10.054;2022-08-01T03:24:40;21.60;78.70
21495;DHT22;10909;53.590;10.054;2022-08-01T03:27:08;21.60;78.70
21495;DHT22;10909;53.590;10.054;2022-08-01T03:29:34;21.60;78.90
21495;DHT22;10909;53.590;10.054;2022-08-01T03:32:01;21.60;78.70
21495;DHT22;10909;53.590;10.054;2022-08-01T03:34:29;21.60;78.70
21495;DHT22;10909;53.590;10.054;2022-08-01T03:39:57;21.60;78.90
21495;DHT22;10909;53.590;10.054;2022-08-01T03:42:28;21.60;79.10
21495;DHT22;10909;53.590;10.054;2022-08-01T03:44:59;21.50;78.60
21495;DHT22;10909;53.590;10.054;2022-08-01T03:47:32;21.50;78.70
21495;DHT22;10909;53.590;10.054;2022-08-01T03:50:01;21.50;78.80
21495;DHT22;10909;53.590;10.054;2022-08-01T03:52:28;21.50;78.70
21495;DHT22;10909;53.590;10.054;2022-08-01T03:54:55;21.50;78.80
21495;DHT22;10909;53.590;10.054;2022-08-01T03:57:22;21.50;78.70
21495;DHT22;10909;53.590;10.054;2022-08-01T03:59:48;21.50;78.70
21495;DHT22;10909;53.590;10.054;2022-08-01T04:02:15;21.50;78.80
21495;DHT22;10909;53.590;10.054;2022-08-01T04:04:42;21.50;79.00
21495;DHT22;10909;53.590;10.054;2022-08-01T04:07:27;21.50;78.90
21495;DHT22;10909;53.590;10.054;2022-08-01T04:09:53;21.50;79.20
21495;DHT22;10909;53.590;10.054;2022-08-01T04:12:19;21.50;79.00
21495;DHT22;10909;53.590;10.054;2022-08-01T04:14:45;21.50;78.90
21495;DHT22;10909;53.590;10.054;2022-08-01T04:17:11;21.50;79.10
21495;DHT22;10909;53.590;10.054;2022-08-01T04:19:37;21.50;79.10
21495;DHT22;10909;53.590;10.054;2022-08-01T04:22:04;21.50;78.90
21495;DHT22;10909;53.590;10.054;2022-08-01T04:24:31;21.50;78.90
21495;DHT22;10909;53.590;10.054;2022-08-01T04:27:00;21.50;78.90
21495;DHT22;10909;53.590;10.054;2022-08-01T04:29:27;21.60;79.00
21495;DHT22;10909;53.590;10.054;2022-08-01T04:31:56;21.60;79.10
21495;DHT22;10909;53.590;10.054;2022-08-01T04:34:24;21.60;79.20
21495;DHT22;10909;53.590;10.054;2022-08-01T04:36:53;21.60;79.20
21495;DHT22;10909;53.590;10.054;2022-08-01T04:39:20;21.60;79.10
21495;DHT22;10909;53.590;10.054;2022-08-01T04:41:49;21.60;79.10
21495;DHT22;10909;53.590;10.054;2022-08-01T04:44:16;21.60;79.10
21495;DHT22;10909;53.590;10.054;2022-08-01T04:46:42;21.60;79.10
21495;DHT22;10909;53.590;10.054;2022-08-01T04:49:10;21.60;79.10
21495;DHT22;10909;53.590;10.054;2022-08-01T04:51:49;21.60;79.10
21495;DHT22;10909;53.590;10.054;2022-08-01T04:54:16;21.70;79.30
21495;DHT22;10909;53.590;10.054;2022-08-01T04:56:42;21.70;79.10
21495;DHT22;10909;53.590;10.054;2022-08-01T04:59:07;21.70;79.10
21495;DHT22;10909;53.590;10.054;2022-08-01T05:01:51;21.70;79.10
21495;DHT22;10909;53.590;10.054;2022-08-01T05:04:17;21.60;78.90
21495;DHT22;10909;53.590;10.054;2022-08-01T05:06:43;21.60;78.80
21495;DHT22;10909;53.590;10.054;2022-08-01T05:09:08;21.60;78.80
21495;DHT22;10909;53.590;10.054;2022-08-01T05:11:34;21.60;79.70
21495;DHT22;10909;53.590;10.054;2022-08-01T05:14:06;21.50;78.80
21495;DHT22;10909;53.590;10.054;2022-08-01T05:16:32;21.50;78.80
21495;DHT22;10909;53.590;10.054;2022-08-01T05:18:57;21.40;78.70
21495;DHT22;10909;53.590;10.054;2022-08-01T05:21:23;21.40;78.70
21495;DHT22;10909;53.590;10.054;2022-08-01T05:23:48;21.30;78.70
21495;DHT22;10909;53.590;10.054;2022-08-01T05:26:14;21.30;78.90
21495;DHT22;10909;53.590;10.054;2022-08-01T05:28:40;21.30;79.10
21495;DHT22;10909;53.590;10.054;2022-08-01T05:31:06;21.20;79.30
21495;DHT22;10909;53.590;10.054;2022-08-01T05:33:31;21.30;79.50
21495;DHT22;10909;53.590;10.054;2022-08-01T05:35:57;21.30;79.70
21495;DHT22;10909;53.590;10.054;2022-08-01T05:38:23;21.30;79.80
21495;DHT22;10909;53.590;10.054;2022-08-01T05:40:49;21.30;79.90
21495;DHT22;10909;53.590;10.054;2022-08-01T05:43:14;21.30;80.00
21495;DHT22;10909;53.590;10.054;2022-08-01T05:45:40;21.40;80.00
21495;DHT22;10909;53.590;10.054;2022-08-01T05:48:07;21.40;79.90
21495;DHT22;10909;53.590;10.054;2022-08-01T05:50:33;21.40;80.00
21495;DHT22;10909;53.590;10.054;2022-08-01T05:52:59;21.40;80.00
21495;DHT22;10909;53.590;10.054;2022-08-01T05:55:26;21.40;80.70
21495;DHT22;10909;53.590;10.054;2022-08-01T05:57:51;21.50;80.00
21495;DHT22;10909;53.590;10.054;2022-08-01T06:00:17;21.50;80.00
21495;DHT22;10909;53.590;10.054;2022-08-01T06:02:42;21.50;79.90
21495;DHT22;10909;53.590;10.054;2022-08-01T06:05:09;21.60;79.80
21495;DHT22;10909;53.590;10.054;2022-08-01T06:07:41;21.60;79.70
21495;DHT22;10909;53.590;10.054;2022-08-01T06:10:08;21.60;79.50
21495;DHT22;10909;53.590;10.054;2022-08-01T06:12:34;21.60;79.70
21495;DHT22;10909;53.590;10.054;2022-08-01T06:15:00;21.70;79.80
21495;DHT22;10909;53.590;10.054;2022-08-01T06:17:25;21.70;79.60
21495;DHT22;10909;53.590;10.054;2022-08-01T06:19:51;21.80;79.50
21495;DHT22;10909;53.590;10.054;2022-08-01T06:22:17;21.80;79.50
21495;DHT22;10909;53.590;10.054;2022-08-01T06:24:42;21.90;79.50
21495;DHT22;10909;53.590;10.054;2022-08-01T06:27:08;21.90;79.20
21495;DHT22;10909;53.590;10.054;2022-08-01T06:29:33;22.00;79.20
21495;DHT22;10909;53.590;10.054;2022-08-01T06:32:00;22.00;79.20
21495;DHT22;10909;53.590;10.054;2022-08-01T06:34:26;22.00;78.80
21495;DHT22;10909;53.590;10.054;2022-08-01T06:36:51;22.00;78.00
21495;DHT22;10909;53.590;10.054;2022-08-01T06:39:17;22.00;77.90
21495;DHT22;10909;53.590;10.054;2022-08-01T06:41:42;21.90;77.60
21495;DHT22;10909;53.590;10.054;2022-08-01T06:44:11;21.90;77.60
21495;DHT22;10909;53.590;10.054;2022-08-01T06:46:37;21.80;77.50
21495;DHT22;10909;53.590;10.054;2022-08-01T06:49:03;21.80;77.70
21495;DHT22;10909;53.590;10.054;2022-08-01T06:51:29;21.80;77.90
21495;DHT22;10909;53.590;10.054;2022-08-01T06:53:54;21.80;77.90
21495;DHT22;10909;53.590;10.054;2022-08-01T06:56:20;21.80;78.20
21495;DHT22;10909;53.590;10.054;2022-08-01T06:58:46;21.90;78.40
21495;DHT22;10909;53.590;10.054;2022-08-01T07:01:12;21.90;78.50
21495;DHT22;10909;53.590;10.054;2022-08-01T07:03:37;22.00;78.30
21495;DHT22;10909;53.590;10.054;2022-08-01T07:06:07;22.00;78.10
21495;DHT22;10909;53.590;10.054;2022-08-01T07:08:33;22.10;77.70
21495;DHT22;10909;53.590;10.054;2022-08-01T07:10:59;22.10;77.70
21495;DHT22;10909;53.590;10.054;2022-08-01T07:13:28;22.10;77.60
21495;DHT22;10909;53.590;10.054;2022-08-01T07:15:56;22.10;77.40
21495;DHT22;10909;53.590;10.054;2022-08-01T07:18:22;22.10;77.50
21495;DHT22;10909;53.590;10.054;2022-08-01T07:20:48;22.20;77.50
21495;DHT22;10909;53.590;10.054;2022-08-01T07:23:14;22.20;77.00
21495;DHT22;10909;53.590;10.054;2022-08-01T07:25:39;22.10;76.40
21495;DHT22;10909;53.590;10.054;2022-08-01T07:28:05;22.10;76.30
21495;DHT22;10909;53.590;10.054;2022-08-01T07:30:31;22.10;76.30
21495;DHT22;10909;53.590;10.054;2022-08-01T07:32:57;22.00;76.30
21495;DHT22;10909;53.590;10.054;2022-08-01T07:35:22;22.00;76.20
21495;DHT22;10909;53.590;10.054;2022-08-01T07:37:48;22.00;76.60
21495;DHT22;10909;53.590;10.054;2022-08-01T07:40:14;22.00;76.50
21495;DHT22;10909;53.590;10.054;2022-08-01T07:42:39;22.00;76.40
21495;DHT22;10909;53.590;10.054;2022-08-01T07:45:09;22.00;76.50
21495;DHT22;10909;53.590;10.054;2022-08-01T07:47:35;22.00;75.90
21495;DHT22;10909;53.590;10.054;2022-08-01T07:50:02;22.00;76.00
21495;DHT22;10909;53.590;10.054;2022-08-01T07:52:28;22.00;76.80
21495;DHT22;10909;53.590;10.054;2022-08-01T07:54:55;22.00;76.00
21495;DHT22;10909;53.590;10.054;2022-08-01T07:57:22;22.00;76.10
21495;DHT22;10909;53.590;10.054;2022-08-01T07:59:48;22.00;76.00
21495;DHT22;10909;53.590;10.054;2022-08-01T08:02:14;22.00;75.70
21495;DHT22;10909;53.590;10.054;2022-08-01T08:04:48;22.10;75.50
21495;DHT22;10909;53.590;10.054;2022-08-01T08:07:14;22.10;75.60
21495;DHT22;10909;53.590;10.054;2022-08-01T08:09:39;22.10;75.70
21495;DHT22;10909;53.590;10.054;2022-08-01T08:12:05;22.10;76.10
21495;DHT22;10909;53.590;10.054;2022-08-01T08:14:31;22.20;75.90
21495;DHT22;10909;53.590;10.054;2022-08-01T08:16:57;22.20;76.00
21495;DHT22;10909;53.590;10.054;2022-08-01T08:19:22;22.30;75.00
21495;DHT22;10909;53.590;10.054;2022-08-01T08:21:48;22.30;74.60
21495;DHT22;10909;53.590;10.054;2022-08-01T08:24:13;22.30;74.70
21495;DHT22;10909;53.590;10.054;2022-08-01T08:26:57;22.30;74.40
21495;DHT22;10909;53.590;10.054;2022-08-01T08:29:23;22.30;73.90
21495;DHT22;10909;53.590;10.054;2022-08-01T08:31:51;22.30;73.90
21495;DHT22;10909;53.590;10.054;2022-08-01T08:34:17;22.30;74.20
21495;DHT22;10909;53.590;10.054;2022-08-01T08:36:42;22.30;74.00
21495;DHT22;10909;53.590;10.054;2022-08-01T08:39:09;22.30;73.80
21495;DHT22;10909;53.590;10.054;2022-08-01T08:41:35;22.30;73.50
21495;DHT22;10909;53.590;10.054;2022-08-01T08:44:05;22.30;74.60
21495;DHT22;10909;53.590;10.054;2022-08-01T08:46:32;22.30;74.20
21495;DHT22;10909;53.590;10.054;2022-08-01T08:49:02;22.40;74.40
21495;DHT22;10909;53.590;10.054;2022-08-01T08:51:31;22.40;74.20
21495;DHT22;10909;53.590;10.054;2022-08-01T08:53:59;22.50;73.90
21495;DHT22;10909;53.590;10.054;2022-08-01T08:56:26;22.50;73.80
21495;DHT22;10909;53.590;10.054;2022-08-01T08:58:55;22.50;73.10
21495;DHT22;10909;53.590;10.054;2022-08-01T09:01:22;22.50;72.30
21495;DHT22;10909;53.590;10.054;2022-08-01T09:03:48;22.40;71.60
21495;DHT22;10909;53.590;10.054;2022-08-01T09:06:13;22.40;72.20
21495;DHT22;10909;53.590;10.054;2022-08-01T09:08:40;22.40;71.80
21495;DHT22;10909;53.590;10.054;2022-08-01T09:11:05;22.40;72.10
21495;DHT22;10909;53.590;10.054;2022-08-01T09:13:31;22.40;71.20
21495;DHT22;10909;53.590;10.054;2022-08-01T09:15:56;22.40;71.10
21495;DHT22;10909;53.590;10.054;2022-08-01T09:18:37;22.50;71.60
21495;DHT22;10909;53.590;10.054;2022-08-01T09:23:39;22.60;71.40
21495;DHT22;10909;53.590;10.054;2022-08-01T09:26:09;22.70;70.40
21495;DHT22;10909;53.590;10.054;2022-08-01T09:28:35;22.80;70.00
21495;DHT22;10909;53.590;10.054;2022-08-01T09:31:13;22.80;69.70
21495;DHT22;10909;53.590;10.054;2022-08-01T09:36:26;22.90;69.10
21495;DHT22;10909;53.590;10.054;2022-08-01T09:38:53;22.90;69.40
21495;DHT22;10909;53.590;10.054;2022-08-01T09:41:30;22.90;68.50
21495;DHT22;10909;53.590;10.054;2022-08-01T09:43:59;22.90;67.90
21495;DHT22;10909;53.590;10.054;2022-08-01T09:46:24;23.00;69.40
21495;DHT22;10909;53.590;10.054;2022-08-01T09:48:58;23.00;68.80
21495;DHT22;10909;53.590;10.054;2022-08-01T09:51:42;23.00;67.40
21495;DHT22;10909;53.590;10.054;2022-08-01T09:54:07;23.10;65.80
21495;DHT22;10909;53.590;10.054;2022-08-01T09:56:42;23.10;66.80
21495;DHT22;10909;53.590;10.054;2022-08-01T09:59:08;23.20;66.90
21495;DHT22;10909;53.590;10.054;2022-08-01T10:01:45;23.20;68.30
21495;DHT22;10909;53.590;10.054;2022-08-01T10:04:14;23.30;66.70
21495;DHT22;10909;53.590;10.054;2022-08-01T10:06:41;23.40;66.90
21495;DHT22;10909;53.590;10.054;2022-08-01T10:09:10;23.40;66.60
21495;DHT22;10909;53.590;10.054;2022-08-01T10:11:37;23.50;67.40
21495;DHT22;10909;53.590;10.054;2022-08-01T10:14:05;23.50;67.60
21495;DHT22;10909;53.590;10.054;2022-08-01T10:16:32;23.60;67.60
21495;DHT22;10909;53.590;10.054;2022-08-01T10:18:59;23.70;66.80
21495;DHT22;10909;53.590;10.054;2022-08-01T10:21:27;23.70;66.60
21495;DHT22;10909;53.590;10.054;2022-08-01T10:23:54;23.70;66.60
21495;DHT22;10909;53.590;10.054;2022-08-01T10:26:21;23.80;65.00
21495;DHT22;10909;53.590;10.054;2022-08-01T10:28:50;23.80;63.90
21495;DHT22;10909;53.590;10.054;2022-08-01T10:31:17;23.90;66.00
21495;DHT22;10909;53.590;10.054;2022-08-01T10:33:44;24.00;66.20
21495;DHT22;10909;53.590;10.054;2022-08-01T10:36:10;24.10;64.90
21495;DHT22;10909;53.590;10.054;2022-08-01T10:38:36;24.10;65.00
21495;DHT22;10909;53.590;10.054;2022-08-01T10:41:05;24.10;64.40
21495;DHT22;10909;53.590;10.054;2022-08-01T10:43:30;24.20;65.20
21495;DHT22;10909;53.590;10.054;2022-08-01T10:45:56;24.30;65.10
21495;DHT22;10909;53.590;10.054;2022-08-01T10:48:43;24.40;65.20
21495;DHT22;10909;53.590;10.054;2022-08-01T10:51:10;24.40;60.90
21495;DHT22;10909;53.590;10.054;2022-08-01T10:53:46;24.50;63.00
21495;DHT22;10909;53.590;10.054;2022-08-01T10:56:12;24.50;62.60
21495;DHT22;10909;53.590;10.054;2022-08-01T10:58:38;24.50;62.30
21495;DHT22;10909;53.590;10.054;2022-08-01T11:01:25;24.50;63.40
21495;DHT22;10909;53.590;10.054;2022-08-01T11:06:54;24.50;60.20
21495;DHT22;10909;53.590;10.054;2022-08-01T11:09:31;24.50;58.80
21495;DHT22;10909;53.590;10.054;2022-08-01T11:12:07;24.50;60.00
21495;DHT22;10909;53.590;10.054;2022-08-01T11:17:40;24.60;58.00
21495;DHT22;10909;53.590;10.054;2022-08-01T11:20:20;24.60;58.20
21495;DHT22;10909;53.590;10.054;2022-08-01T11:25:25;24.60;58.90
21495;DHT22;10909;53.590;10.054;2022-08-01T11:28:18;24.70;59.90
21495;DHT22;10909;53.590;10.054;2022-08-01T11:30:46;24.70;58.50
21495;DHT22;10909;53.590;10.054;2022-08-01T11:33:14;24.70;60.10
21495;DHT22;10909;53.590;10.054;2022-08-01T11:41:31;24.90;58.10
21495;DHT22;10909;53.590;10.054;2022-08-01T11:44:00;24.90;58.20
21495;DHT22;10909;53.590;10.054;2022-08-01T11:54:40;25.00;57.60
21495;DHT22;10909;53.590;10.054;2022-08-01T11:57:19;25.10;56.40
21495;DHT22;10909;53.590;10.054;2022-08-01T11:59:52;25.10;55.50
21495;DHT22;10909;53.590;10.054;2022-08-01T12:05:00;25.10;56.60
21495;DHT22;10909;53.590;10.054;2022-08-01T12:07:29;25.10;56.50
21495;DHT22;10909;53.590;10.054;2022-08-01T12:12:29;25.10;57.40
21495;DHT22;10909;53.590;10.054;2022-08-01T12:14:57;25.10;56.40
21495;DHT22;10909;53.590;10.054;2022-08-01T12:17:34;25.10;54.60
21495;DHT22;10909;53.590;10.054;2022-08-01T12:20:02;25.10;54.00
21495;DHT22;10909;53.590;10.054;2022-08-01T12:22:28;25.10;54.40
21495;DHT22;10909;53.590;10.054;2022-08-01T12:24:54;25.10;54.80
21495;DHT22;10909;53.590;10.054;2022-08-01T12:27:28;25.10;53.90
21495;DHT22;10909;53.590;10.054;2022-08-01T12:29:55;25.10;53.40
21495;DHT22;10909;53.590;10.054;2022-08-01T12:32:32;25.10;54.30
21495;DHT22;10909;53.590;10.054;2022-08-01T12:35:06;25.10;52.40
21495;DHT22;10909;53.590;10.054;2022-08-01T12:37:35;25.10;54.20
21495;DHT22;10909;53.590;10.054;2022-08-01T12:40:19;25.20;55.10
21495;DHT22;10909;53.590;10.054;2022-08-01T12:42:47;25.40;55.60
21495;DHT22;10909;53.590;10.054;2022-08-01T12:45:16;25.60;54.60
21495;DHT22;10909;53.590;10.054;2022-08-01T12:47:43;25.80;55.20
21495;DHT22;10909;53.590;10.054;2022-08-01T12:50:16;26.10;55.70
21495;DHT22;10909;53.590;10.054;2022-08-01T12:52:43;26.40;55.60
21495;DHT22;10909;53.590;10.054;2022-08-01T12:55:20;26.70;57.70
21495;DHT22;10909;53.590;10.054;2022-08-01T12:57:48;27.10;57.20
21495;DHT22;10909;53.590;10.054;2022-08-01T13:00:23;27.60;55.80
21495;DHT22;10909;53.590;10.054;2022-08-01T13:05:48;28.20;55.80
21495;DHT22;10909;53.590;10.054;2022-08-01T13:08:20;28.70;56.60
21495;DHT22;10909;53.590;10.054;2022-08-01T13:10:46;29.00;54.60
21495;DHT22;10909;53.590;10.054;2022-08-01T13:13:13;29.30;52.30
21495;DHT22;10909;53.590;10.054;2022-08-01T13:15:41;29.50;52.60
21495;DHT22;10909;53.590;10.054;2022-08-01T13:18:26;29.60;50.00
21495;DHT22;10909;53.590;10.054;2022-08-01T13:21:18;29.70;49.20
21495;DHT22;10909;53.590;10.054;2022-08-01T13:24:11;29.80;46.40
21495;DHT22;10909;53.590;10.054;2022-08-01T13:29:09;29.90;48.70
21495;DHT22;10909;53.590;10.054;2022-08-01T13:31:35;29.90;49.30
21495;DHT22;10909;53.590;10.054;2022-08-01T13:34:02;30.10;49.90
21495;DHT22;10909;53.590;10.054;2022-08-01T13:36:28;30.20;46.90
21495;DHT22;10909;53.590;10.054;2022-08-01T13:38:55;30.10;44.80
21495;DHT22;10909;53.590;10.054;2022-08-01T13:41:39;30.10;45.00
21495;DHT22;10909;53.590;10.054;2022-08-01T13:44:05;30.10;45.40
21495;DHT22;10909;53.590;10.054;2022-08-01T13:46:31;30.00;45.40
21495;DHT22;10909;53.590;10.054;2022-08-01T13:48:57;30.00;45.70
21495;DHT22;10909;53.590;10.054;2022-08-01T13:51:23;30.00;45.20
21495;DHT22;10909;53.590;10.054;2022-08-01T13:53:48;30.00;46.00
21495;DHT22;10909;53.590;10.054;2022-08-01T13:56:14;30.20;46.70
21495;DHT22;10909;53.590;10.054;2022-08-01T13:58:42;30.40;46.70
21495;DHT22;10909;53.590;10.054;2022-08-01T14:01:08;30.60;47.10
21495;DHT22;10909;53.590;10.054;2022-08-01T14:03:34;30.90;46.50
21495;DHT22;10909;53.590;10.054;2022-08-01T14:06:00;31.10;43.90
21495;DHT22;10909;53.590;10.054;2022-08-01T14:08:26;31.30;44.30
21495;DHT22;10909;53.590;10.054;2022-08-01T14:10:51;31.40;44.10
21495;DHT22;10909;53.590;10.054;2022-08-01T14:13:19;31.60;43.30
21495;DHT22;10909;53.590;10.054;2022-08-01T14:15:44;31.70;42.60
21495;DHT22;10909;53.590;10.054;2022-08-01T14:18:10;31.60;40.40
21495;DHT22;10909;53.590;10.054;2022-08-01T14:20:37;31.60;40.50
21495;DHT22;10909;53.590;10.054;2022-08-01T14:23:03;31.60;41.80
21495;DHT22;10909;53.590;10.054;2022-08-01T14:25:28;31.60;42.40
21495;DHT22;10909;53.590;10.054;2022-08-01T14:27:54;31.60;40.20
21495;DHT22;10909;53.590;10.054;2022-08-01T14:30:20;31.60;39.40
21495;DHT22;10909;53.590;10.054;2022-08-01T14:32:46;31.50;39.70
21495;DHT22;10909;53.590;10.054;2022-08-01T14:35:11;31.30;38.40
21495;DHT22;10909;53.590;10.054;2022-08-01T14:37:37;31.10;39.60
21495;DHT22;10909;53.590;10.054;2022-08-01T14:40:03;31.00;38.00
21495;DHT22;10909;53.590;10.054;2022-08-01T14:42:32;30.90;38.80
21495;DHT22;10909;53.590;10.054;2022-08-01T14:44:58;30.80;39.80
21495;DHT22;10909;53.590;10.054;2022-08-01T14:47:24;30.80;39.70
21495;DHT22;10909;53.590;10.054;2022-08-01T14:49:50;30.80;39.40
21495;DHT22;10909;53.590;10.054;2022-08-01T14:52:16;30.70;39.70
21495;DHT22;10909;53.590;10.054;2022-08-01T14:54:42;30.70;40.10
21495;DHT22;10909;53.590;10.054;2022-08-01T14:57:08;30.70;40.40
21495;DHT22;10909;53.590;10.054;2022-08-01T14:59:34;30.80;40.00
21495;DHT22;10909;53.590;10.054;2022-08-01T15:02:00;30.70;40.00
21495;DHT22;10909;53.590;10.054;2022-08-01T15:04:25;30.70;40.60
21495;DHT22;10909;53.590;10.054;2022-08-01T15:06:51;30.70;40.10
21495;DHT22;10909;53.590;10.054;2022-08-01T15:09:17;30.70;39.80
21495;DHT22;10909;53.590;10.054;2022-08-01T15:11:42;30.70;39.80
21495;DHT22;10909;53.590;10.054;2022-08-01T15:14:08;30.70;40.60
21495;DHT22;10909;53.590;10.054;2022-08-01T15:16:52;30.70;40.80
21495;DHT22;10909;53.590;10.054;2022-08-01T15:19:18;30.80;39.80
21495;DHT22;10909;53.590;10.054;2022-08-01T15:21:43;30.80;39.20
21495;DHT22;10909;53.590;10.054;2022-08-01T15:24:09;30.80;38.20
21495;DHT22;10909;53.590;10.054;2022-08-01T15:26:34;30.60;37.50
21495;DHT22;10909;53.590;10.054;2022-08-01T15:29:00;30.40;38.00
21495;DHT22;10909;53.590;10.054;2022-08-01T15:31:26;30.20;38.50
21495;DHT22;10909;53.590;10.054;2022-08-01T15:33:52;30.10;39.00
21495;DHT22;10909;53.590;10.054;2022-08-01T15:36:17;30.00;39.00
21495;DHT22;10909;53.590;10.054;2022-08-01T15:38:43;30.00;40.10
21495;DHT22;10909;53.590;10.054;2022-08-01T15:41:09;30.00;40.00
21495;DHT22;10909;53.590;10.054;2022-08-01T15:43:34;30.10;39.20
21495;DHT22;10909;53.590;10.054;2022-08-01T15:46:00;30.30;40.40
21495;DHT22;10909;53.590;10.054;2022-08-01T15:48:27;30.40;39.60
21495;DHT22;10909;53.590;10.054;2022-08-01T15:50:52;30.60;40.20
21495;DHT22;10909;53.590;10.054;2022-08-01T15:53:18;30.80;40.80
21495;DHT22;10909;53.590;10.054;2022-08-01T15:55:43;30.90;40.50
21495;DHT22;10909;53.590;10.054;2022-08-01T15:58:09;31.10;39.80
21495;DHT22;10909;53.590;10.054;2022-08-01T16:00:35;31.30;39.00
21495;DHT22;10909;53.590;10.054;2022-08-01T16:03:00;31.30;38.70
21495;DHT22;10909;53.590;10.054;2022-08-01T16:05:26;31.30;38.20
21495;DHT22;10909;53.590;10.054;2022-08-01T16:07:52;31.30;38.50
21495;DHT22;10909;53.590;10.054;2022-08-01T16:10:18;31.30;37.70
21495;DHT22;10909;53.590;10.054;2022-08-01T16:12:43;31.20;38.20
21495;DHT22;10909;53.590;10.054;2022-08-01T16:15:09;31.20;38.80
21495;DHT22;10909;53.590;10.054;2022-08-01T16:17:35;31.30;39.10
21495;DHT22;10909;53.590;10.054;2022-08-01T16:20:01;31.30;38.30
21495;DHT22;10909;53.590;10.054;2022-08-01T16:22:27;31.40;38.70